createdAt,value
2023-11-06T00:00:49.680Z,2.83
2023-11-06T00:03:17.220Z,3.58
2023-11-06T00:05:44.719Z,3.88
2023-11-06T00:08:12.164Z,3.00
2023-11-06T00:10:39.444Z,1.58
2023-11-06T00:13:06.757Z,1.75
2023-11-06T00:15:34.047Z,1.88
2023-11-06T00:18:01.408Z,2.58
2023-11-06T00:20:28.772Z,1.85
2023-11-06T00:22:56.203Z,2.63
2023-11-06T00:25:23.508Z,1.88
2023-11-06T00:27:51.731Z,2.63
2023-11-06T00:30:19.143Z,2.17
2023-11-06T00:32:46.515Z,1.77
2023-11-06T00:35:14.997Z,2.50
2023-11-06T00:37:42.798Z,5.13
2023-11-06T00:40:10.472Z,3.47
2023-11-06T00:42:37.815Z,4.50
2023-11-06T00:45:05.719Z,7.07
2023-11-06T00:47:33.054Z,5.13
2023-11-06T00:50:00.631Z,6.22
2023-11-06T00:52:28.117Z,5.50
2023-11-06T00:54:56.038Z,6.78
2023-11-06T00:57:23.347Z,5.43
2023-11-06T00:59:50.623Z,4.18
2023-11-06T01:02:18.014Z,4.47
2023-11-06T01:04:45.805Z,4.43
2023-11-06T01:07:13.275Z,3.88
2023-11-06T01:09:40.552Z,2.08
2023-11-06T01:12:07.940Z,1.63
2023-11-06T01:14:35.258Z,2.38
2023-11-06T01:17:02.696Z,1.15
2023-11-06T01:19:30.518Z,1.00
2023-11-06T01:21:57.799Z,1.08
2023-11-06T01:24:25.719Z,1.17
2023-11-06T01:26:52.997Z,1.37
2023-11-06T01:29:20.316Z,1.58
2023-11-06T01:31:47.735Z,0.95
2023-11-06T01:34:15.373Z,1.17
2023-11-06T01:36:44.942Z,0.77
2023-11-06T01:39:12.722Z,2.30
2023-11-06T01:41:40.307Z,1.77
2023-11-06T01:44:10.733Z,1.90
2023-11-06T01:46:38.100Z,1.33
2023-11-06T01:49:07.277Z,1.35
2023-11-06T01:51:36.755Z,1.67
2023-11-06T01:54:04.309Z,2.28
2023-11-06T01:56:34.132Z,1.63
2023-11-06T01:59:02.967Z,1.05
2023-11-06T02:01:31.212Z,2.35
2023-11-06T02:04:00.204Z,1.80
2023-11-06T02:06:31.815Z,0.98
2023-11-06T02:09:01.960Z,1.95
2023-11-06T02:11:29.229Z,1.10
2023-11-06T02:13:56.567Z,1.25
2023-11-06T02:16:23.867Z,1.37
2023-11-06T02:18:51.209Z,2.30
2023-11-06T02:21:20.672Z,1.40
2023-11-06T02:23:48.229Z,2.10
2023-11-06T02:26:15.741Z,6.70
2023-11-06T02:28:43.159Z,1.57
2023-11-06T02:31:10.959Z,1.40
2023-11-06T02:33:39.396Z,1.58
2023-11-06T02:36:08.345Z,3.90
2023-11-06T02:38:36.581Z,2.25
2023-11-06T02:41:04.659Z,0.90
2023-11-06T02:43:31.988Z,6.30
2023-11-06T02:45:59.913Z,2.75
2023-11-06T02:48:27.301Z,1.20
2023-11-06T02:50:54.893Z,1.17
2023-11-06T02:53:22.409Z,1.00
2023-11-06T02:55:49.852Z,2.17
2023-11-06T02:58:17.186Z,1.45
2023-11-06T03:00:44.518Z,1.38
2023-11-06T03:03:11.972Z,0.70
2023-11-06T03:05:39.485Z,1.00
2023-11-06T03:08:06.935Z,0.68
2023-11-06T03:10:34.526Z,2.67
2023-11-06T03:13:01.842Z,0.70
2023-11-06T03:15:29.231Z,0.88
2023-11-06T03:17:56.596Z,1.60
2023-11-06T03:20:24.803Z,1.05
2023-11-06T03:22:52.463Z,1.10
2023-11-06T03:25:20.090Z,1.27
2023-11-06T03:27:49.526Z,1.58
2023-11-06T03:30:17.097Z,1.57
2023-11-06T03:32:44.490Z,1.08
2023-11-06T03:35:11.919Z,1.15
2023-11-06T03:37:39.310Z,3.63
2023-11-06T03:40:07.695Z,1.08
2023-11-06T03:42:35.037Z,2.20
2023-11-06T03:45:02.329Z,1.25
2023-11-06T03:47:29.829Z,2.78
2023-11-06T03:49:57.471Z,1.80
2023-11-06T03:52:24.809Z,0.95
2023-11-06T03:54:52.576Z,0.60
2023-11-06T03:57:19.916Z,2.65
2023-11-06T03:59:47.227Z,2.38
2023-11-06T04:02:14.741Z,1.50
2023-11-06T04:04:42.092Z,1.23
2023-11-06T04:07:09.584Z,1.37
2023-11-06T04:09:36.895Z,1.70
2023-11-06T04:12:04.602Z,1.40
2023-11-06T04:14:31.965Z,2.33
2023-11-06T04:16:59.427Z,1.30
2023-11-06T04:19:29.844Z,3.20
2023-11-06T04:21:57.248Z,1.63
2023-11-06T04:24:24.598Z,1.15
2023-11-06T04:26:51.892Z,0.80
2023-11-06T04:29:19.279Z,0.85
2023-11-06T04:31:46.577Z,0.97
2023-11-06T04:34:13.903Z,1.00
2023-11-06T04:36:41.217Z,1.38
2023-11-06T04:39:11.179Z,1.35
2023-11-06T04:41:39.169Z,2.80
2023-11-06T04:44:06.748Z,1.00
2023-11-06T04:46:34.030Z,2.58
2023-11-06T04:49:01.618Z,1.38
2023-11-06T04:51:30.425Z,1.13
2023-11-06T04:53:57.802Z,1.23
2023-11-06T04:56:25.162Z,1.17
2023-11-06T04:58:52.487Z,0.80
2023-11-06T05:01:19.939Z,1.42
2023-11-06T05:03:47.398Z,2.70
2023-11-06T05:06:14.858Z,2.35
2023-11-06T05:08:42.167Z,1.67
2023-11-06T05:11:09.471Z,2.13
2023-11-06T05:13:36.790Z,2.45
2023-11-06T05:16:05.451Z,1.33
2023-11-06T05:18:32.904Z,2.22
2023-11-06T05:21:00.363Z,1.50
2023-11-06T05:23:27.796Z,1.33
2023-11-06T05:25:55.095Z,0.80
2023-11-06T05:28:28.255Z,2.30
2023-11-06T05:30:55.709Z,1.88
2023-11-06T05:33:23.110Z,0.63
2023-11-06T05:35:50.436Z,2.00
2023-11-06T05:38:17.853Z,1.55
2023-11-06T05:40:45.174Z,1.73
2023-11-06T05:43:12.956Z,2.25
2023-11-06T05:45:40.235Z,2.45
2023-11-06T05:48:07.908Z,2.38
2023-11-06T05:50:36.341Z,1.67
2023-11-06T05:53:03.902Z,1.98
2023-11-06T05:55:31.214Z,2.03
2023-11-06T05:57:58.541Z,1.80
2023-11-06T06:00:25.834Z,2.08
2023-11-06T06:02:53.179Z,1.30
2023-11-06T06:05:20.543Z,1.25
2023-11-06T06:07:47.929Z,1.80
2023-11-06T06:10:15.278Z,1.60
2023-11-06T06:12:43.283Z,0.80
2023-11-06T06:15:15.609Z,1.38
2023-11-06T06:17:46.361Z,1.67
2023-11-06T06:20:14.199Z,2.03
2023-11-06T06:22:41.932Z,1.53
2023-11-06T06:25:09.707Z,1.38
2023-11-06T06:27:40.162Z,1.40
2023-11-06T06:30:08.521Z,3.20
2023-11-06T06:32:36.042Z,1.83
2023-11-06T06:35:06.284Z,2.77
2023-11-06T06:37:33.744Z,1.52
2023-11-06T06:40:02.069Z,2.10
2023-11-06T06:42:29.482Z,2.13
2023-11-06T06:44:56.911Z,2.45
2023-11-06T06:47:24.343Z,1.30
2023-11-06T06:49:52.941Z,1.20
2023-11-06T06:52:20.347Z,1.67
2023-11-06T06:54:47.757Z,1.20
2023-11-06T06:57:19.855Z,4.55
2023-11-06T06:59:47.733Z,1.10
2023-11-06T07:02:15.929Z,3.78
2023-11-06T07:04:43.466Z,3.83
2023-11-06T07:07:38.746Z,3.55
2023-11-06T07:10:06.977Z,2.70
2023-11-06T07:12:38.329Z,2.00
2023-11-06T07:15:07.740Z,3.90
2023-11-06T07:17:39.268Z,4.38
2023-11-06T07:20:07.747Z,1.35
2023-11-06T07:22:37.594Z,3.30
2023-11-06T07:25:12.483Z,2.80
2023-11-06T07:27:40.404Z,2.20
2023-11-06T07:30:09.012Z,3.15
2023-11-06T07:32:36.601Z,2.75
2023-11-06T07:35:04.588Z,3.17
2023-11-06T07:37:36.203Z,1.57
2023-11-06T07:40:23.983Z,1.52
2023-11-06T07:42:51.488Z,9.48
2023-11-06T07:45:19.995Z,3.97
2023-11-06T07:47:47.860Z,2.45
2023-11-06T07:50:18.268Z,2.73
2023-11-06T07:55:27.847Z,4.55
2023-11-06T07:57:55.348Z,3.15
2023-11-06T08:00:39.975Z,3.35
2023-11-06T08:03:14.459Z,2.30
2023-11-06T08:05:47.245Z,2.38
2023-11-06T08:08:14.751Z,4.68
2023-11-06T08:10:42.155Z,3.17
2023-11-06T08:13:09.461Z,2.30
2023-11-06T08:15:36.806Z,1.93
2023-11-06T08:18:04.390Z,2.15
2023-11-06T08:20:32.901Z,2.67
2023-11-06T08:23:00.269Z,1.88
2023-11-06T08:25:27.836Z,3.15
2023-11-06T08:27:55.730Z,1.30
2023-11-06T08:30:24.427Z,4.18
2023-11-06T08:32:51.917Z,4.95
2023-11-06T08:35:20.218Z,3.90
2023-11-06T08:37:48.784Z,1.75
2023-11-06T08:40:19.052Z,2.50
2023-11-06T08:42:46.893Z,1.77
2023-11-06T08:45:15.103Z,2.15
2023-11-06T08:47:45.839Z,0.75
2023-11-06T08:50:13.659Z,2.85
2023-11-06T08:53:00.051Z,3.17
2023-11-06T08:55:27.628Z,0.70
2023-11-06T08:57:55.571Z,3.50
2023-11-06T09:00:23.055Z,2.75
2023-11-06T09:03:00.801Z,2.30
2023-11-06T09:05:37.557Z,1.40
2023-11-06T09:08:05.266Z,2.03
2023-11-06T09:10:32.645Z,2.83
2023-11-06T09:13:00.404Z,2.95
2023-11-06T09:15:28.768Z,1.65
2023-11-06T09:17:56.485Z,5.83
2023-11-06T09:23:22.666Z,2.97
2023-11-06T09:28:41.337Z,2.75
2023-11-06T09:31:28.875Z,3.80
2023-11-06T09:33:56.277Z,3.10
2023-11-06T09:36:23.656Z,4.32
2023-11-06T09:38:51.189Z,3.05
2023-11-06T09:41:18.533Z,2.55
2023-11-06T09:43:45.807Z,4.73
2023-11-06T09:47:03.415Z,2.17
2023-11-06T09:50:20.557Z,3.47
2023-11-06T09:52:51.129Z,1.92
2023-11-06T09:55:31.563Z,7.05
2023-11-06T09:57:58.994Z,3.03
2023-11-06T10:00:28.048Z,2.83
2023-11-06T10:02:57.885Z,2.47
2023-11-06T10:05:28.534Z,3.03
2023-11-06T10:08:03.036Z,1.20
2023-11-06T10:10:50.688Z,1.93
2023-11-06T10:13:19.405Z,1.20
2023-11-06T10:16:01.301Z,2.75
2023-11-06T10:18:31.151Z,2.35
2023-11-06T10:21:24.487Z,2.70
2023-11-06T10:24:36.322Z,2.70
2023-11-06T10:27:03.712Z,2.20
2023-11-06T10:29:53.009Z,1.88
2023-11-06T10:32:30.357Z,4.47
2023-11-06T10:35:12.694Z,2.75
2023-11-06T10:37:43.067Z,2.23
2023-11-06T10:40:14.414Z,3.03
2023-11-06T10:42:44.328Z,1.92
2023-11-06T10:45:19.401Z,3.58
2023-11-06T10:47:53.971Z,2.17
2023-11-06T10:50:22.340Z,0.93
2023-11-06T10:52:55.069Z,3.25
2023-11-06T10:55:31.752Z,1.38
2023-11-06T10:58:01.501Z,3.97
2023-11-06T11:00:29.083Z,2.60
2023-11-06T11:02:57.307Z,2.40
2023-11-06T11:05:32.914Z,3.22
2023-11-06T11:08:03.170Z,3.00
2023-11-06T11:10:30.872Z,4.18
2023-11-06T11:13:00.445Z,4.93
2023-11-06T11:15:29.651Z,2.20
2023-11-06T11:18:01.162Z,2.03
2023-11-06T11:20:29.025Z,3.97
2023-11-06T11:23:09.158Z,3.53
2023-11-06T11:25:59.353Z,3.60
2023-11-06T11:28:29.292Z,2.23
2023-11-06T11:30:57.006Z,2.58
2023-11-06T11:33:57.160Z,1.48
2023-11-06T11:36:38.178Z,2.67
2023-11-06T11:39:18.126Z,1.55
2023-11-06T11:42:00.415Z,1.20
2023-11-06T11:44:28.880Z,1.02
2023-11-06T11:46:57.373Z,2.65
2023-11-06T11:49:39.262Z,1.77
2023-11-06T11:52:07.344Z,4.18
2023-11-06T11:54:38.330Z,3.40
2023-11-06T11:57:07.081Z,3.90
2023-11-06T11:59:44.471Z,4.35
2023-11-06T12:02:24.957Z,3.38
2023-11-06T12:05:21.549Z,5.28
2023-11-06T12:08:00.516Z,6.47
2023-11-06T12:10:31.446Z,5.72
2023-11-06T12:13:19.516Z,6.07
2023-11-06T12:19:27.013Z,1.33
2023-11-06T12:23:01.419Z,2.03
2023-11-06T12:25:42.497Z,2.72
2023-11-06T12:28:24.873Z,2.63
2023-11-06T12:31:14.902Z,3.22
2023-11-06T12:34:40.198Z,2.53
2023-11-06T12:37:14.453Z,1.97
2023-11-06T12:39:42.182Z,1.27
2023-11-06T12:42:10.042Z,1.85
2023-11-06T12:45:12.784Z,5.18
2023-11-06T12:47:46.359Z,2.45
2023-11-06T12:50:19.250Z,4.13
2023-11-06T12:52:49.809Z,5.93
2023-11-06T12:55:24.291Z,1.20
2023-11-06T12:58:31.962Z,1.65
2023-11-06T13:01:42.852Z,1.52
2023-11-06T13:08:02.204Z,2.35
2023-11-06T13:10:30.274Z,2.05
2023-11-06T13:12:58.705Z,2.60
2023-11-06T13:15:27.759Z,2.35
2023-11-06T13:18:04.149Z,3.57
2023-11-06T13:20:55.149Z,2.95
2023-11-06T13:23:23.206Z,2.67
2023-11-06T13:25:59.863Z,2.75
2023-11-06T13:28:41.374Z,2.72
2023-11-06T13:31:12.366Z,0.70
2023-11-06T13:33:56.756Z,3.17
2023-11-06T13:36:29.587Z,2.25
2023-11-06T13:38:59.236Z,1.92
2023-11-06T13:41:28.643Z,4.75
2023-11-06T13:43:59.735Z,2.87
2023-11-06T13:46:30.176Z,1.55
2023-11-06T13:48:58.090Z,2.25
2023-11-06T13:51:27.803Z,2.10
2023-11-06T13:54:01.016Z,2.33
2023-11-06T13:56:38.412Z,2.50
2023-11-06T13:59:11.709Z,2.78
2023-11-06T14:01:49.722Z,7.80
2023-11-06T14:04:18.641Z,3.10
2023-11-06T14:06:49.349Z,6.65
2023-11-06T14:09:35.833Z,3.80
2023-11-06T14:12:06.151Z,7.40
2023-11-06T14:14:34.066Z,5.82
2023-11-06T14:17:01.811Z,5.57
2023-11-06T14:19:30.707Z,3.03
2023-11-06T14:21:58.145Z,4.43
2023-11-06T14:24:25.509Z,5.43
2023-11-06T14:26:53.588Z,17.23
2023-11-06T14:29:22.400Z,2.83
2023-11-06T14:31:51.008Z,6.47
2023-11-06T14:34:18.528Z,6.40
2023-11-06T14:36:46.139Z,5.38
2023-11-06T14:39:15.925Z,7.47
2023-11-06T14:41:43.762Z,10.18
2023-11-06T14:44:14.313Z,10.10
2023-11-06T14:46:41.764Z,9.33
2023-11-06T14:49:39.951Z,8.80
2023-11-06T14:52:17.736Z,10.02
2023-11-06T14:58:52.469Z,6.97
2023-11-06T15:01:56.429Z,5.63
2023-11-06T15:04:29.468Z,7.63
2023-11-06T15:06:57.043Z,5.57
2023-11-06T15:09:25.007Z,7.15
2023-11-06T15:11:52.302Z,4.28
2023-11-06T15:14:29.615Z,5.23
2023-11-06T15:17:30.656Z,6.85
2023-11-06T15:19:57.983Z,4.82
2023-11-06T15:22:29.485Z,5.25
2023-11-06T15:25:00.194Z,4.18
2023-11-06T15:27:30.686Z,4.27
2023-11-06T15:30:00.709Z,4.90
2023-11-06T15:32:28.659Z,4.43
2023-11-06T15:34:56.008Z,4.38
2023-11-06T15:37:23.385Z,5.35
2023-11-06T15:39:53.713Z,2.57
2023-11-06T15:42:22.820Z,4.82
2023-11-06T15:44:50.299Z,6.30
2023-11-06T15:47:17.660Z,7.25
2023-11-06T15:49:52.105Z,11.95
2023-11-06T15:52:20.161Z,8.33
2023-11-06T15:54:47.549Z,7.60
2023-11-06T15:57:15.827Z,13.02
2023-11-06T15:59:43.189Z,7.07
2023-11-06T16:02:10.666Z,5.43
2023-11-06T16:04:38.011Z,9.27
2023-11-06T16:07:06.074Z,9.38
2023-11-06T16:09:34.450Z,9.48
2023-11-06T16:12:01.839Z,9.90
2023-11-06T16:14:29.204Z,8.05
2023-11-06T16:16:57.828Z,14.40
2023-11-06T16:19:25.156Z,7.35
2023-11-06T16:21:52.415Z,11.13
2023-11-06T16:24:19.757Z,15.60
2023-11-06T16:26:47.495Z,15.27
2023-11-06T16:29:14.958Z,19.57
2023-11-06T16:31:46.305Z,13.75
2023-11-06T16:34:14.796Z,13.57
2023-11-06T16:36:45.250Z,10.32
2023-11-06T16:39:20.542Z,9.38
2023-11-06T16:41:48.203Z,12.03
2023-11-06T16:44:23.683Z,11.50
2023-11-06T16:46:59.824Z,10.73
2023-11-06T16:52:15.206Z,9.15
2023-11-06T16:54:46.887Z,8.88
2023-11-06T16:57:16.314Z,7.60
2023-11-06T16:59:44.040Z,13.00
2023-11-06T17:02:11.784Z,5.90
2023-11-06T17:04:39.139Z,5.13
2023-11-06T17:07:06.491Z,6.17
2023-11-06T17:09:33.750Z,6.72
2023-11-06T17:12:01.253Z,6.70
2023-11-06T17:14:28.768Z,5.40
2023-11-06T17:16:56.267Z,6.82
2023-11-06T17:19:23.667Z,6.00
2023-11-06T17:21:51.830Z,4.03
2023-11-06T17:24:19.309Z,5.78
2023-11-06T17:26:46.735Z,5.05
2023-11-06T17:29:14.112Z,4.50
2023-11-06T17:31:42.755Z,5.87
2023-11-06T17:34:10.645Z,4.07
2023-11-06T17:36:39.352Z,4.85
2023-11-06T17:39:06.648Z,5.05
2023-11-06T17:41:34.018Z,5.35
2023-11-06T17:44:03.563Z,9.53
2023-11-06T17:46:30.937Z,4.03
2023-11-06T17:48:58.381Z,5.65
2023-11-06T17:51:26.020Z,5.53
2023-11-06T17:53:53.376Z,8.00
2023-11-06T17:56:20.995Z,9.17
2023-11-06T17:58:48.500Z,5.72
2023-11-06T18:01:15.808Z,4.32
2023-11-06T18:03:43.298Z,5.82
2023-11-06T18:06:10.738Z,5.90
2023-11-06T18:08:38.425Z,7.20
2023-11-06T18:11:06.246Z,6.20
2023-11-06T18:13:33.570Z,3.53
2023-11-06T18:16:00.922Z,6.03
2023-11-06T18:18:31.599Z,4.25
2023-11-06T18:21:01.426Z,3.40
2023-11-06T18:23:30.568Z,4.75
2023-11-06T18:25:57.994Z,5.18
2023-11-06T18:28:27.387Z,6.15
2023-11-06T18:30:54.884Z,10.15
2023-11-06T18:33:23.592Z,6.50
2023-11-06T18:35:51.098Z,5.75
2023-11-06T18:38:18.504Z,8.95
2023-11-06T18:40:50.314Z,5.78
2023-11-06T18:43:18.296Z,5.85
2023-11-06T18:45:45.616Z,5.50
2023-11-06T18:48:12.967Z,4.93
2023-11-06T18:50:40.488Z,7.28
2023-11-06T18:53:10.534Z,9.93
2023-11-06T18:55:38.532Z,6.57
2023-11-06T18:58:07.904Z,6.53
2023-11-06T19:00:35.858Z,6.97
2023-11-06T19:03:03.430Z,6.13
2023-11-06T19:05:30.983Z,8.85
2023-11-06T19:07:58.462Z,7.22
2023-11-06T19:10:25.857Z,8.98
2023-11-06T19:12:53.573Z,5.88
2023-11-06T19:15:21.034Z,9.25
2023-11-06T19:17:48.727Z,5.57
2023-11-06T19:20:17.820Z,5.15
2023-11-06T19:22:45.958Z,7.57
2023-11-06T19:25:13.530Z,5.30
2023-11-06T19:27:41.451Z,7.28
2023-11-06T19:30:13.031Z,6.95
2023-11-06T19:32:41.166Z,2.47
2023-11-06T19:35:12.719Z,4.00
2023-11-06T19:37:41.323Z,5.70
2023-11-06T19:40:09.562Z,8.35
2023-11-06T19:42:36.869Z,2.58
2023-11-06T19:45:04.602Z,7.00
2023-11-06T19:47:32.033Z,7.50
2023-11-06T19:49:59.725Z,5.07
2023-11-06T19:52:27.014Z,6.10
2023-11-06T19:54:54.393Z,7.75
2023-11-06T19:57:21.699Z,6.35
2023-11-06T19:59:58.081Z,4.25
2023-11-06T20:02:35.788Z,6.38
2023-11-06T20:05:03.904Z,10.70
2023-11-06T20:07:31.273Z,5.97
2023-11-06T20:09:58.916Z,6.30
2023-11-06T20:12:26.250Z,7.27
2023-11-06T20:14:53.890Z,7.65
2023-11-06T20:17:21.416Z,8.82
2023-11-06T20:19:48.823Z,5.80
2023-11-06T20:22:17.325Z,4.55
2023-11-06T20:24:47.761Z,6.18
2023-11-06T20:27:15.198Z,6.93
2023-11-06T20:29:42.527Z,5.47
2023-11-06T20:32:09.962Z,4.10
2023-11-06T20:34:37.289Z,6.10
2023-11-06T20:37:04.844Z,5.63
2023-11-06T20:39:32.893Z,3.72
2023-11-06T20:42:00.266Z,4.55
2023-11-06T20:44:27.682Z,3.92
2023-11-06T20:46:55.214Z,3.90
2023-11-06T20:49:22.622Z,3.90
2023-11-06T20:51:49.979Z,3.70
2023-11-06T20:54:17.410Z,7.10
2023-11-06T20:56:45.917Z,3.72
2023-11-06T20:59:13.447Z,5.30
2023-11-06T21:01:41.760Z,3.13
2023-11-06T21:04:09.304Z,5.18
2023-11-06T21:06:37.835Z,4.60
2023-11-06T21:09:06.032Z,7.07
2023-11-06T21:11:33.734Z,6.05
2023-11-06T21:14:01.052Z,4.53
2023-11-06T21:16:33.843Z,5.93
2023-11-06T21:19:01.615Z,4.72
2023-11-06T21:21:28.972Z,5.68
2023-11-06T21:23:57.105Z,3.90
2023-11-06T21:26:24.880Z,7.87
2023-11-06T21:28:52.344Z,6.18
2023-11-06T21:31:19.921Z,10.60
2023-11-06T21:33:48.361Z,6.32
2023-11-06T21:36:16.208Z,8.00
2023-11-06T21:38:43.924Z,5.43
2023-11-06T21:41:11.276Z,6.30
2023-11-06T21:43:39.127Z,7.50
2023-11-06T21:46:06.823Z,9.05
2023-11-06T21:48:35.516Z,8.10
2023-11-06T21:51:02.991Z,6.27
2023-11-06T21:53:30.433Z,8.73
2023-11-06T21:55:57.738Z,6.32
2023-11-06T21:58:29.968Z,6.53
2023-11-06T22:00:58.264Z,6.18
2023-11-06T22:03:25.836Z,7.50
2023-11-06T22:05:53.474Z,11.57
2023-11-06T22:08:20.832Z,7.00
2023-11-06T22:10:48.113Z,6.22
2023-11-06T22:13:15.481Z,8.18
2023-11-06T22:15:42.755Z,7.05
2023-11-06T22:18:10.102Z,8.68
2023-11-06T22:20:37.526Z,7.20
2023-11-06T22:23:05.225Z,9.32
2023-11-06T22:25:32.774Z,8.95
2023-11-06T22:28:00.078Z,8.98
2023-11-06T22:30:27.576Z,6.80
2023-11-06T22:32:55.042Z,10.02
2023-11-06T22:35:22.417Z,6.55
2023-11-06T22:37:50.019Z,7.18
2023-11-06T22:40:17.532Z,6.57
2023-11-06T22:42:44.942Z,12.57
2023-11-06T22:45:12.480Z,6.78
2023-11-06T22:47:40.712Z,11.68
2023-11-06T22:50:11.175Z,8.75
2023-11-06T22:52:39.547Z,9.10
2023-11-06T22:55:07.937Z,9.38
2023-11-06T22:57:35.319Z,9.38
2023-11-06T23:00:04.256Z,9.30
2023-11-06T23:02:31.784Z,12.15
2023-11-06T23:04:59.223Z,12.20
2023-11-06T23:07:26.599Z,11.73
2023-11-06T23:09:53.921Z,11.02
2023-11-06T23:12:21.188Z,8.25
2023-11-06T23:14:48.532Z,10.18
2023-11-06T23:17:15.833Z,11.35
2023-11-06T23:19:43.649Z,11.60
2023-11-06T23:22:10.984Z,14.35
2023-11-06T23:24:38.285Z,12.95
2023-11-06T23:27:08.318Z,15.13
2023-11-06T23:29:35.811Z,14.20
2023-11-06T23:32:03.683Z,14.95
2023-11-06T23:34:31.039Z,14.55
2023-11-06T23:36:58.417Z,15.55
2023-11-06T23:39:26.133Z,18.42
2023-11-06T23:41:54.256Z,15.15
2023-11-06T23:44:21.827Z,18.60
2023-11-06T23:46:49.185Z,18.63
2023-11-06T23:49:16.530Z,21.52
2023-11-06T23:51:44.171Z,17.35
2023-11-06T23:54:12.087Z,14.57
2023-11-06T23:56:39.447Z,21.25
2023-11-06T23:59:06.859Z,16.90
